Alton, TX

4:56 PM CDT on April 21, 2015 (GMT -0500)
North Cummings Ave | | Change Station
CLOSE
Current Station
Personal Weather Station
Location: Mission, TX
Elevation: 154 ft
Nearby Weather Stations

Elev 154 ft 26.23 °N, 98.33 °W | Updated 1 minute ago

Overcast
Overcast
77.4 °F
Feels Like 79 °F
N
3.6
Wind Variable Wind from South
Gusts 5.1 mph

Today
High -- | Low -- °F
--% Chance of Precip.
Yesterday
High -- | Low -- °F
Precip. -- in
7:04 AM 7:59 PM
Waxing Crescent, 13% visible
Pressure 29.86 in
Visibility 10.0 miles
Clouds Mostly Cloudy 2300 ft
Overcast 3400 ft
Heat Index 79 °F
Dew Point 69 °F
Humidity 76%
Rainfall 0.25 in
Snow Depth Not available.
UV 2 out of 12
Pollen 5.50 out of 12
Air Quality Not available.
Flu Activity Local Activity
METAR KMFE 212153Z 11012KT 10SM BKN023 OVC034 27/21 A2986 RMK AO2 SLP109 T02670206

More Conditions Fewer Conditions

Pressure 29.86 in
Visibility 10.0 miles
Clouds Mostly Cloudy 2300 ft
Overcast 3400 ft
Heat Index 79 °F
Dew Point 69 °F
Humidity 76%
Rainfall 0.25 in
Snow Depth Not available.
UV 2 out of 12
Pollen 5.50 out of 12
Air Quality Not available.
Flu Activity Local Activity
METAR KMFE 212153Z 11012KT 10SM BKN023 OVC034 27/21 A2986 RMK AO2 SLP109 T02670206

More Conditions Fewer Conditions

10-Day Weather Forecast

Almanac

Astronomy

Apr. 21, 2015 Rise Set
Actual Time
Civil Twilight
Nautical Twilight
Astronomical Twilight
Moon
Length of Visible Light
Length of Day
Tomorrow will be .
, % of the Moon is Illuminated

Today's Extremes

State Highs State Lows

Community

WunderPhotos

Upload Photos

1,815,551 photos uploaded!

WunderBlogs® & News

Nearby

Air Quality

  Air Quality AQ Index Pollutant
Not available.

Snow Depth

Station Depth Elevation

Earthquake Activity

City Distance Mag. Time & Date
Minimum magnitude displayed is 2.5.

Coastal Water Temperatures

Place Temperature

Stations

Nearby Weather Stations

Station Location Temp. Windchill Dew Point Humidity Wind Precip. Elev Updated Type